createdAt,value
2022-09-20T17:36:41.146Z,269.75
2022-09-20T17:39:10.822Z,289.42
2022-09-20T17:41:37.393Z,352.98
2022-09-20T17:44:08.148Z,422.42
2022-09-20T17:47:36.648Z,368.38
2022-09-20T17:50:03.267Z,354.70
2022-09-20T17:52:29.773Z,340.05
2022-09-20T17:54:56.733Z,342.73
2022-09-20T17:57:23.226Z,331.38
2022-09-20T17:59:49.732Z,334.17
2022-09-20T18:02:16.306Z,324.15
2022-09-20T18:04:42.775Z,319.42
2022-09-20T18:07:09.389Z,319.98
2022-09-20T18:09:35.843Z,323.10
2022-09-20T18:12:02.316Z,330.05
2022-09-20T18:14:30.087Z,372.15
2022-09-20T18:16:59.088Z,428.02
2022-09-20T18:19:32.311Z,454.02
2022-09-20T18:21:59.308Z,506.50
2022-09-20T18:24:26.222Z,537.75
2022-09-20T18:26:52.675Z,635.75
2022-09-20T18:31:01.830Z,125.07
2022-09-20T18:33:29.818Z,206.07
2022-09-20T18:36:00.408Z,189.50
2022-09-20T18:38:26.928Z,167.15
2022-09-20T18:40:55.692Z,151.32
2022-09-20T18:43:22.157Z,137.98
2022-09-20T18:45:55.060Z,132.45
2022-09-20T18:48:22.994Z,136.65
2022-09-20T18:51:02.667Z,127.93
2022-09-20T18:53:30.429Z,122.75
2022-09-20T18:55:57.483Z,131.15
2022-09-20T18:58:24.256Z,128.38
2022-09-20T19:01:01.821Z,125.43
2022-09-20T19:03:38.683Z,123.50
2022-09-20T19:06:05.337Z,124.13
2022-09-20T19:08:37.842Z,128.20
2022-09-20T19:11:07.704Z,120.70
2022-09-20T19:13:46.573Z,125.30
2022-09-20T19:16:20.037Z,122.70
2022-09-20T19:18:57.663Z,122.90
2022-09-20T19:21:42.623Z,123.55
2022-09-20T19:24:18.133Z,150.25
2022-09-20T19:26:44.765Z,141.00
2022-09-20T19:29:18.850Z,129.48
2022-09-20T19:34:20.019Z,131.18
2022-09-20T19:37:08.432Z,134.73
2022-09-20T19:39:59.684Z,135.82
2022-09-20T19:42:48.279Z,128.02
2022-09-20T19:45:20.784Z,133.15
2022-09-20T19:47:48.339Z,127.53
2022-09-20T19:50:27.830Z,133.73
2022-09-20T19:52:56.109Z,132.20
2022-09-20T19:55:22.861Z,134.10
2022-09-20T19:57:49.734Z,132.38
2022-09-20T20:00:18.072Z,137.85
2022-09-20T20:02:45.635Z,136.85
2022-09-20T20:05:13.406Z,139.98
2022-09-20T20:07:49.090Z,135.73
2022-09-20T20:10:30.333Z,135.32
2022-09-20T20:13:42.859Z,137.52
2022-09-20T20:16:14.665Z,140.23
2022-09-20T20:18:56.936Z,141.68
2022-09-20T20:21:35.374Z,280.15
2022-09-20T20:24:31.617Z,395.38
2022-09-20T20:26:58.190Z,355.80
2022-09-20T20:29:24.715Z,308.83
2022-09-20T20:31:51.302Z,274.13
2022-09-20T20:34:17.838Z,261.38
2022-09-20T20:36:44.324Z,259.27
2022-09-20T20:39:11.460Z,250.05
2022-09-20T20:41:39.325Z,251.55
2022-09-20T20:44:06.270Z,246.38
2022-09-20T20:46:35.883Z,248.35
2022-09-20T20:49:03.382Z,255.77
2022-09-20T20:51:32.878Z,255.32
2022-09-20T20:53:59.740Z,247.15
2022-09-20T20:56:28.503Z,245.05
2022-09-20T20:58:55.281Z,247.57
2022-09-20T21:01:23.276Z,241.30
2022-09-20T21:03:51.987Z,241.40
2022-09-20T21:06:18.782Z,230.85
2022-09-20T21:08:49.315Z,235.68
2022-09-20T21:11:18.694Z,228.40
2022-09-20T21:13:45.299Z,235.23
2022-09-20T21:16:14.000Z,228.35
2022-09-20T21:18:41.341Z,228.18
2022-09-20T21:21:17.641Z,244.23
2022-09-20T21:23:46.159Z,319.70
2022-09-20T21:26:15.260Z,332.77
2022-09-20T21:28:43.397Z,297.80
2022-09-20T21:31:10.467Z,288.42
2022-09-20T21:33:39.316Z,268.88
2022-09-20T21:36:06.187Z,270.25
2022-09-20T21:38:35.397Z,304.85
2022-09-20T21:41:06.796Z,298.83
2022-09-20T21:43:33.829Z,282.20
2022-09-20T21:46:00.382Z,282.20
2022-09-20T21:48:27.090Z,273.20
2022-09-20T21:51:02.269Z,274.88
2022-09-20T21:53:29.595Z,274.02
2022-09-20T21:55:59.891Z,261.33
2022-09-20T21:58:27.093Z,265.23
2022-09-20T22:01:08.180Z,256.88
2022-09-20T22:03:38.761Z,257.13
2022-09-20T22:06:17.127Z,244.88
2022-09-20T22:09:06.326Z,250.25
2022-09-20T22:11:34.674Z,323.13
2022-09-20T22:14:01.206Z,302.58
2022-09-20T22:16:29.353Z,282.55
2022-09-20T22:18:56.038Z,265.75
2022-09-20T22:21:27.149Z,240.77
2022-09-20T22:23:57.259Z,241.93
2022-09-20T22:26:24.870Z,239.43
2022-09-20T22:28:51.665Z,220.77
2022-09-20T22:31:20.280Z,228.27
2022-09-20T22:33:48.627Z,216.27
2022-09-20T22:36:16.378Z,209.20
2022-09-20T22:38:43.426Z,198.85
2022-09-20T22:41:09.869Z,193.75
2022-09-20T22:43:36.335Z,187.13
2022-09-20T22:46:22.050Z,188.38
2022-09-20T22:48:48.571Z,176.30
2022-09-20T22:51:16.807Z,175.40
2022-09-20T22:53:43.450Z,169.65
2022-09-20T22:56:28.812Z,168.75
2022-09-20T22:59:00.127Z,163.07
2022-09-20T23:01:28.066Z,157.55
2022-09-20T23:04:07.612Z,151.65
2022-09-20T23:06:39.012Z,145.05
2022-09-20T23:09:07.748Z,145.27
2022-09-20T23:11:34.591Z,143.63
2022-09-20T23:14:02.183Z,141.25
2022-09-20T23:16:29.974Z,138.25
2022-09-20T23:18:57.359Z,136.18
2022-09-20T23:21:24.078Z,127.65
2022-09-20T23:23:54.525Z,128.38
2022-09-20T23:26:21.107Z,125.05
2022-09-20T23:29:00.847Z,120.82
2022-09-20T23:31:27.918Z,117.50
2022-09-20T23:33:58.952Z,113.45
2022-09-20T23:36:26.623Z,112.85
2022-09-20T23:38:53.204Z,108.25
2022-09-20T23:41:21.986Z,103.80
2022-09-20T23:43:48.628Z,103.47
2022-09-20T23:46:15.972Z,103.65
2022-09-20T23:48:42.605Z,97.55
2022-09-20T23:51:10.623Z,98.35
2022-09-20T23:53:37.182Z,94.22
2022-09-20T23:56:04.555Z,88.95
2022-09-20T23:58:31.066Z,85.72
